createdAt,value
2019-05-02T00:01:54.519Z,15.40
2019-05-02T00:04:45.737Z,15.40
2019-05-02T00:07:37.293Z,15.40
2019-05-02T00:10:28.126Z,15.50
2019-05-02T00:13:19.452Z,15.40
2019-05-02T00:16:14.007Z,15.50
2019-05-02T00:19:03.132Z,15.50
2019-05-02T00:21:53.617Z,15.50
2019-05-02T00:24:44.310Z,15.40
2019-05-02T00:27:37.667Z,15.50
2019-05-02T00:30:29.981Z,15.50
2019-05-02T00:33:18.733Z,15.50
2019-05-02T00:36:09.500Z,15.50
2019-05-02T00:38:59.938Z,15.50
2019-05-02T00:41:50.693Z,15.60
2019-05-02T00:44:42.097Z,15.60
2019-05-02T00:47:47.015Z,15.70
2019-05-02T00:50:40.437Z,15.70
2019-05-02T00:53:29.749Z,15.70
2019-05-02T00:56:20.074Z,15.70
2019-05-02T00:59:11.398Z,15.80
2019-05-02T01:02:12.473Z,15.80
2019-05-02T01:05:03.242Z,15.80
2019-05-02T01:08:00.764Z,15.90
2019-05-02T01:10:52.064Z,15.90
2019-05-02T01:13:40.573Z,15.90
2019-05-02T01:16:31.177Z,15.90
2019-05-02T01:19:22.205Z,15.90
2019-05-02T01:22:15.847Z,15.90
2019-05-02T01:25:05.555Z,16.00
2019-05-02T01:28:19.736Z,16.00
2019-05-02T01:31:25.832Z,16.00
2019-05-02T01:34:24.001Z,16.00
2019-05-02T01:37:21.918Z,16.00
2019-05-02T01:40:17.746Z,16.00
2019-05-02T01:43:24.077Z,16.10
2019-05-02T01:46:17.038Z,16.00
2019-05-02T01:49:08.549Z,16.10
2019-05-02T01:51:59.828Z,16.00
2019-05-02T01:54:51.356Z,16.10
2019-05-02T01:57:44.699Z,16.10
2019-05-02T02:00:35.166Z,16.00
2019-05-02T02:03:26.490Z,16.00
2019-05-02T02:06:17.675Z,16.00
2019-05-02T02:09:09.874Z,16.10
2019-05-02T02:12:04.909Z,16.00
2019-05-02T02:14:55.461Z,16.00
2019-05-02T02:17:46.844Z,16.00
2019-05-02T02:20:49.056Z,16.00
2019-05-02T02:23:59.249Z,16.00
2019-05-02T02:26:50.639Z,15.90
2019-05-02T02:29:43.976Z,15.90
2019-05-02T02:32:32.918Z,15.80
2019-05-02T02:35:24.138Z,15.80
2019-05-02T02:38:14.589Z,15.80
2019-05-02T02:41:12.528Z,15.70
2019-05-02T02:44:11.112Z,15.70
2019-05-02T02:47:04.659Z,15.70
2019-05-02T02:50:02.764Z,15.60
2019-05-02T02:52:47.277Z,15.60
2019-05-02T02:55:38.059Z,15.50
2019-05-02T02:58:29.431Z,15.50
2019-05-02T03:01:29.081Z,15.40
2019-05-02T03:04:13.123Z,15.40
2019-05-02T03:07:03.978Z,15.40
2019-05-02T03:09:59.405Z,15.30
2019-05-02T03:13:05.391Z,15.20
2019-05-02T03:16:00.347Z,15.20
2019-05-02T03:18:50.300Z,15.10
2019-05-02T03:21:54.248Z,15.10
2019-05-02T03:24:46.774Z,15.00
2019-05-02T03:27:40.442Z,15.00
2019-05-02T03:30:36.347Z,15.00
2019-05-02T03:33:22.440Z,14.90
2019-05-02T03:36:28.004Z,14.90
2019-05-02T03:39:13.323Z,14.80
2019-05-02T03:42:02.965Z,14.70
2019-05-02T03:44:56.210Z,14.70
2019-05-02T03:47:44.159Z,14.60
2019-05-02T03:50:35.338Z,14.50
2019-05-02T03:53:27.758Z,14.50
2019-05-02T03:56:19.328Z,14.40
2019-05-02T03:59:10.743Z,14.40
2019-05-02T04:02:02.260Z,14.30
2019-05-02T04:05:00.338Z,14.30
2019-05-02T04:07:48.038Z,14.20
2019-05-02T04:11:23.780Z,14.20
2019-05-02T04:14:15.913Z,14.20
2019-05-02T04:17:06.877Z,14.10
2019-05-02T04:19:58.401Z,14.10
2019-05-02T04:22:50.872Z,14.10
2019-05-02T04:25:42.143Z,14.10
2019-05-02T04:28:34.693Z,14.10
2019-05-02T04:31:31.566Z,14.10
2019-05-02T04:34:18.158Z,14.10
2019-05-02T04:37:08.573Z,14.10
2019-05-02T04:40:03.186Z,14.10
2019-05-02T04:43:02.074Z,14.10
2019-05-02T04:45:53.117Z,14.10
2019-05-02T04:48:44.305Z,14.20
2019-05-02T04:51:31.764Z,14.20
2019-05-02T04:54:25.667Z,14.20
2019-05-02T04:57:12.268Z,14.30
2019-05-02T05:00:10.477Z,14.40
2019-05-02T05:02:54.721Z,14.50
2019-05-02T05:05:48.210Z,14.50
2019-05-02T05:08:41.235Z,14.60
2019-05-02T05:11:30.042Z,14.70
2019-05-02T05:14:21.071Z,14.80
2019-05-02T05:17:12.124Z,14.80
2019-05-02T05:20:10.500Z,14.90
2019-05-02T05:22:58.011Z,15.00
2019-05-02T05:25:55.842Z,15.00
2019-05-02T05:28:47.543Z,15.10
2019-05-02T05:31:38.808Z,15.20
2019-05-02T05:34:32.631Z,15.30
2019-05-02T05:37:22.371Z,15.30
2019-05-02T05:40:12.665Z,15.40
2019-05-02T05:43:14.138Z,15.50
2019-05-02T05:46:06.040Z,15.60
2019-05-02T05:48:47.785Z,15.80
2019-05-02T05:51:39.305Z,15.90
2019-05-02T05:54:33.057Z,16.10
2019-05-02T05:57:22.243Z,16.30
2019-05-02T06:00:18.733Z,16.50
2019-05-02T06:03:11.524Z,16.70
2019-05-02T06:05:57.986Z,17.00
2019-05-02T06:08:53.959Z,17.20
2019-05-02T06:11:41.437Z,17.40
2019-05-02T06:14:34.483Z,17.60
2019-05-02T06:17:28.537Z,17.70
2019-05-02T06:20:17.367Z,17.70
2019-05-02T06:23:08.385Z,17.80
2019-05-02T06:25:59.743Z,17.80
2019-05-02T06:28:50.981Z,17.90
2019-05-02T06:31:44.338Z,18.00
2019-05-02T06:34:38.786Z,18.00
2019-05-02T06:37:27.507Z,18.20
2019-05-02T06:40:17.925Z,18.30
2019-05-02T06:43:11.254Z,18.50
2019-05-02T06:46:14.878Z,18.80
2019-05-02T06:48:54.215Z,19.20
2019-05-02T06:51:44.716Z,19.70
2019-05-02T06:54:35.570Z,20.30
2019-05-02T06:57:26.361Z,21.00
2019-05-02T07:00:18.085Z,21.80
2019-05-02T07:03:10.135Z,22.70
2019-05-02T07:06:02.895Z,23.50
2019-05-02T07:08:52.845Z,24.30
2019-05-02T07:11:56.623Z,25.10
2019-05-02T07:14:35.962Z,25.80
2019-05-02T07:17:39.766Z,26.40
2019-05-02T07:20:30.380Z,26.90
2019-05-02T07:23:20.737Z,27.30
2019-05-02T07:26:15.528Z,27.60
2019-05-02T07:29:03.684Z,28.00
2019-05-02T07:31:54.589Z,28.40
2019-05-02T07:34:48.133Z,28.80
2019-05-02T07:37:37.953Z,29.20
2019-05-02T07:40:29.056Z,29.50
2019-05-02T07:43:22.214Z,29.60
2019-05-02T07:46:16.141Z,29.60
2019-05-02T07:49:04.234Z,29.60
2019-05-02T07:51:57.647Z,29.60
2019-05-02T07:54:46.862Z,29.80
2019-05-02T07:57:37.246Z,29.90
2019-05-02T08:00:32.112Z,30.00
2019-05-02T08:03:20.856Z,30.30
2019-05-02T08:06:12.367Z,30.60
2019-05-02T08:09:07.174Z,30.90
2019-05-02T08:11:57.687Z,31.40
2019-05-02T08:14:47.920Z,31.80
2019-05-02T08:17:38.844Z,32.30
2019-05-02T08:20:29.270Z,32.70
2019-05-02T08:23:20.634Z,33.10
2019-05-02T08:26:16.340Z,33.50
2019-05-02T08:29:06.052Z,33.80
2019-05-02T08:31:56.839Z,34.10
2019-05-02T08:34:51.897Z,34.40
2019-05-02T08:37:41.045Z,34.60
2019-05-02T08:40:31.627Z,34.80
2019-05-02T08:43:22.856Z,34.80
2019-05-02T08:46:15.844Z,34.80
2019-05-02T08:49:06.492Z,34.90
2019-05-02T08:51:58.288Z,35.00
2019-05-02T08:54:49.275Z,35.10
2019-05-02T08:57:40.098Z,35.20
2019-05-02T09:00:36.883Z,35.30
2019-05-02T09:03:23.935Z,35.30
2019-05-02T09:06:17.287Z,35.30
2019-05-02T09:09:08.853Z,35.20
2019-05-02T09:12:11.423Z,35.20
2019-05-02T09:14:52.245Z,35.30
2019-05-02T09:17:51.523Z,35.40
2019-05-02T09:20:35.336Z,35.50
2019-05-02T09:23:31.942Z,35.70
2019-05-02T09:26:31.964Z,35.70
2019-05-02T09:29:12.482Z,35.80
2019-05-02T09:32:02.312Z,35.90
2019-05-02T09:34:56.640Z,35.90
2019-05-02T09:37:45.531Z,36.20
2019-05-02T09:40:35.744Z,36.40
2019-05-02T09:43:29.408Z,36.70
2019-05-02T09:46:21.752Z,37.10
2019-05-02T09:49:16.471Z,37.40
2019-05-02T09:52:06.387Z,37.70
2019-05-02T09:54:57.661Z,37.90
2019-05-02T09:57:49.076Z,38.20
2019-05-02T10:01:01.824Z,38.50
2019-05-02T10:03:52.208Z,38.80
2019-05-02T10:06:44.229Z,39.10
2019-05-02T10:09:36.241Z,39.30
2019-05-02T10:12:27.563Z,39.60
2019-05-02T10:15:22.104Z,39.80
2019-05-02T10:18:14.528Z,40.00
2019-05-02T10:21:07.721Z,39.90
2019-05-02T10:24:00.848Z,39.90
2019-05-02T10:26:55.263Z,39.80
2019-05-02T10:29:45.831Z,39.70
2019-05-02T10:32:37.617Z,39.50
2019-05-02T10:35:37.311Z,39.30
2019-05-02T10:38:22.958Z,39.10
2019-05-02T10:41:13.761Z,39.00
2019-05-02T10:44:04.854Z,38.80
2019-05-02T10:46:58.442Z,38.80
2019-05-02T10:49:54.405Z,38.80
2019-05-02T10:52:45.769Z,38.60
2019-05-02T10:55:36.818Z,38.50
2019-05-02T10:58:33.930Z,38.30
2019-05-02T11:01:21.998Z,38.10
2019-05-02T11:04:13.882Z,37.90
2019-05-02T11:07:04.212Z,37.80
2019-05-02T11:09:57.374Z,37.60
2019-05-02T11:13:05.477Z,37.30
2019-05-02T11:16:13.907Z,36.90
2019-05-02T11:19:13.324Z,36.20
2019-05-02T11:22:04.543Z,35.50
2019-05-02T11:24:55.683Z,34.80
2019-05-02T11:27:46.039Z,34.20
2019-05-02T11:30:41.863Z,33.50
2019-05-02T11:33:32.557Z,32.90
2019-05-02T11:36:23.055Z,32.30
2019-05-02T11:39:24.806Z,31.80
2019-05-02T11:42:07.050Z,31.30
2019-05-02T11:44:58.281Z,30.90
2019-05-02T11:47:48.937Z,30.50
2019-05-02T11:50:40.028Z,30.20
2019-05-02T11:53:32.652Z,29.80
2019-05-02T11:56:23.593Z,29.60
2019-05-02T11:59:14.961Z,29.40
2019-05-02T12:02:27.802Z,29.30
2019-05-02T12:05:22.079Z,29.20
2019-05-02T12:08:12.316Z,29.00
2019-05-02T12:11:03.889Z,28.90
2019-05-02T12:13:56.938Z,28.70
2019-05-02T12:16:46.744Z,28.60
2019-05-02T12:19:38.116Z,28.50
2019-05-02T12:22:29.086Z,28.30
2019-05-02T12:25:22.364Z,28.20
2019-05-02T12:28:13.751Z,28.00
2019-05-02T12:31:08.015Z,27.80
2019-05-02T12:33:57.541Z,27.60
2019-05-02T12:36:48.546Z,27.50
2019-05-02T12:39:44.247Z,27.30
2019-05-02T12:42:36.514Z,27.20
2019-05-02T12:45:28.759Z,27.10
2019-05-02T12:48:21.782Z,27.00
2019-05-02T12:51:13.096Z,26.90
2019-05-02T12:54:04.546Z,26.80
2019-05-02T12:56:55.842Z,26.70
2019-05-02T12:59:46.062Z,26.70
2019-05-02T13:02:42.650Z,26.60
2019-05-02T13:05:34.037Z,26.50
2019-05-02T13:08:25.336Z,26.50
2019-05-02T13:11:27.219Z,26.40
2019-05-02T13:14:22.377Z,26.40
2019-05-02T13:17:13.338Z,26.40
2019-05-02T13:20:06.378Z,26.40
2019-05-02T13:23:37.149Z,26.40
2019-05-02T13:26:27.212Z,26.30
2019-05-02T13:29:18.175Z,26.30
2019-05-02T13:32:27.402Z,26.30
2019-05-02T13:35:36.545Z,26.30
2019-05-02T13:38:27.880Z,26.20
2019-05-02T13:41:19.370Z,26.20
2019-05-02T13:44:12.822Z,26.20
2019-05-02T13:47:05.996Z,26.20
2019-05-02T13:50:00.922Z,26.20
2019-05-02T13:52:53.266Z,26.20
2019-05-02T13:55:48.523Z,26.10
2019-05-02T13:58:38.980Z,26.00
2019-05-02T14:01:31.668Z,25.80
2019-05-02T14:04:23.666Z,25.70
2019-05-02T14:07:17.477Z,25.60
2019-05-02T14:10:18.448Z,25.40
2019-05-02T14:13:09.459Z,25.30
2019-05-02T14:16:02.259Z,25.20
2019-05-02T14:18:53.458Z,25.00
2019-05-02T14:21:44.466Z,24.90
2019-05-02T14:24:42.222Z,24.80
2019-05-02T14:27:33.497Z,24.60
2019-05-02T14:30:37.074Z,24.50
2019-05-02T14:33:23.271Z,24.40
2019-05-02T14:36:15.239Z,24.30
2019-05-02T14:39:08.395Z,24.20
2019-05-02T14:41:59.104Z,24.20
2019-05-02T14:45:05.606Z,24.00
2019-05-02T14:47:43.603Z,23.90
2019-05-02T14:50:36.525Z,23.90
2019-05-02T14:53:27.321Z,23.70
2019-05-02T14:56:29.629Z,23.70
2019-05-02T14:59:20.273Z,23.70
2019-05-02T15:02:32.798Z,23.60
2019-05-02T15:05:27.889Z,23.50
2019-05-02T15:08:15.498Z,23.50
2019-05-02T15:11:06.452Z,23.40
2019-05-02T15:13:57.471Z,23.30
2019-05-02T15:16:49.714Z,23.30
2019-05-02T15:19:42.643Z,23.20
2019-05-02T15:22:37.439Z,23.10
2019-05-02T15:25:25.298Z,23.10
2019-05-02T15:28:19.393Z,23.00
2019-05-02T15:31:18.987Z,23.10
2019-05-02T15:34:25.733Z,23.00
2019-05-02T15:37:16.986Z,23.00
2019-05-02T15:43:09.003Z,22.90
2019-05-02T15:45:54.773Z,22.90
2019-05-02T15:48:48.702Z,22.80
2019-05-02T15:51:43.714Z,22.80
2019-05-02T15:54:32.311Z,22.70
2019-05-02T15:57:24.873Z,22.70
2019-05-02T16:00:25.691Z,22.60
2019-05-02T16:03:14.844Z,22.50
2019-05-02T16:06:06.414Z,22.40
2019-05-02T16:08:58.092Z,22.30
2019-05-02T16:11:53.151Z,22.20
2019-05-02T16:14:42.447Z,22.20
2019-05-02T16:17:33.888Z,22.10
2019-05-02T16:20:33.410Z,22.00
2019-05-02T16:23:29.653Z,22.00
2019-05-02T16:26:15.391Z,22.00
2019-05-02T16:29:06.440Z,22.00
2019-05-02T16:32:19.414Z,22.10
2019-05-02T16:35:15.583Z,22.00
2019-05-02T16:38:02.250Z,22.00
2019-05-02T16:40:53.207Z,22.00
2019-05-02T16:43:43.529Z,22.00
2019-05-02T16:46:34.755Z,21.90
2019-05-02T16:49:26.116Z,21.90
2019-05-02T16:52:17.209Z,21.80
2019-05-02T16:55:08.418Z,21.80
2019-05-02T16:58:02.704Z,21.80
2019-05-02T17:00:53.101Z,21.70
2019-05-02T17:03:43.630Z,21.70
2019-05-02T17:06:36.724Z,21.60
2019-05-02T17:09:38.825Z,21.60
2019-05-02T17:12:29.630Z,21.50
2019-05-02T17:15:36.837Z,21.40
2019-05-02T17:18:27.326Z,21.40
2019-05-02T17:21:17.638Z,21.30
2019-05-02T17:24:08.934Z,21.20
2019-05-02T17:27:00.032Z,21.10
2019-05-02T17:29:52.453Z,21.00
2019-05-02T17:32:42.853Z,20.90
2019-05-02T17:35:34.009Z,20.80
2019-05-02T17:38:29.092Z,20.70
2019-05-02T17:41:16.422Z,20.60
2019-05-02T17:44:07.579Z,20.50
2019-05-02T17:47:01.526Z,20.50
2019-05-02T17:49:50.565Z,20.40
2019-05-02T17:52:46.493Z,20.30
2019-05-02T17:55:40.290Z,20.20
2019-05-02T17:58:31.612Z,20.10
2019-05-02T18:01:33.336Z,20.00
2019-05-02T18:04:22.123Z,19.90
2019-05-02T18:07:13.738Z,19.80
2019-05-02T18:10:13.612Z,19.70
2019-05-02T18:12:59.859Z,19.60
2019-05-02T18:15:50.017Z,19.60
2019-05-02T18:18:45.437Z,19.50
2019-05-02T18:21:33.742Z,19.40
2019-05-02T18:24:24.363Z,19.40
2019-05-02T18:27:15.617Z,19.30
2019-05-02T18:30:08.495Z,19.30
2019-05-02T18:33:03.499Z,19.30
2019-05-02T18:35:52.670Z,19.20
2019-05-02T18:38:43.411Z,19.20
2019-05-02T18:41:37.427Z,19.10
2019-05-02T18:44:27.271Z,19.20
2019-05-02T18:47:20.243Z,19.10
2019-05-02T18:50:37.025Z,19.10
2019-05-02T18:53:27.425Z,19.00
2019-05-02T18:56:18.273Z,19.00
2019-05-02T18:59:14.304Z,19.00
2019-05-02T19:02:02.717Z,18.90
2019-05-02T19:04:53.926Z,18.90
2019-05-02T19:07:47.292Z,18.90
2019-05-02T19:10:42.514Z,18.80
2019-05-02T19:13:32.678Z,18.80
2019-05-02T19:16:25.080Z,18.70
2019-05-02T19:19:14.126Z,18.60
2019-05-02T19:22:07.443Z,18.50
2019-05-02T19:24:57.930Z,18.50
2019-05-02T19:28:05.925Z,18.40
2019-05-02T19:30:57.325Z,18.30
2019-05-02T19:33:48.489Z,18.20
2019-05-02T19:36:41.620Z,18.10
2019-05-02T19:39:33.729Z,18.10
2019-05-02T19:42:26.267Z,18.00
2019-05-02T19:45:18.877Z,17.90
2019-05-02T19:48:12.379Z,17.80
2019-05-02T19:51:03.299Z,17.70
2019-05-02T19:53:59.314Z,17.70
2019-05-02T19:56:48.582Z,17.60
2019-05-02T19:59:40.700Z,17.50
2019-05-02T20:02:37.542Z,17.40
2019-05-02T20:05:25.733Z,17.40
2019-05-02T20:08:21.433Z,17.30
2019-05-02T20:11:09.800Z,17.20
2019-05-02T20:14:04.212Z,17.20
2019-05-02T20:16:55.080Z,17.10
2019-05-02T20:19:48.763Z,17.10
2019-05-02T20:22:41.056Z,17.00
2019-05-02T20:25:37.882Z,17.00
2019-05-02T20:28:23.320Z,16.90
2019-05-02T20:31:13.820Z,16.90
2019-05-02T20:34:05.311Z,16.80
2019-05-02T20:36:56.554Z,16.70
2019-05-02T20:39:48.148Z,16.70
2019-05-02T20:42:41.892Z,16.60
2019-05-02T20:45:32.455Z,16.60
2019-05-02T20:48:23.734Z,16.50
2019-05-02T20:51:15.057Z,16.40
2019-05-02T20:54:05.894Z,16.40
2019-05-02T20:56:57.533Z,16.30
2019-05-02T20:59:49.009Z,16.30
2019-05-02T21:02:39.858Z,16.20
2019-05-02T21:05:38.026Z,16.20
2019-05-02T21:08:36.160Z,16.10
2019-05-02T21:11:28.846Z,16.10
2019-05-02T21:14:19.236Z,16.00
2019-05-02T21:17:10.486Z,16.00
2019-05-02T21:20:02.049Z,16.00
2019-05-02T21:22:53.134Z,15.90
2019-05-02T21:25:44.399Z,15.90
2019-05-02T21:28:34.605Z,15.80
2019-05-02T21:31:25.954Z,15.80
2019-05-02T21:34:17.222Z,15.70
2019-05-02T21:37:07.720Z,15.70
2019-05-02T21:39:58.821Z,15.60
2019-05-02T21:42:51.759Z,15.60
2019-05-02T21:45:42.895Z,15.60
2019-05-02T21:48:34.344Z,15.50
2019-05-02T21:51:42.639Z,15.50
2019-05-02T21:54:44.114Z,15.40
2019-05-02T21:57:34.827Z,15.40
2019-05-02T22:00:45.968Z,15.40
2019-05-02T22:03:36.927Z,15.30
2019-05-02T22:06:28.366Z,15.30
2019-05-02T22:09:19.866Z,15.20
2019-05-02T22:12:11.999Z,15.20
2019-05-02T22:15:02.487Z,15.20
2019-05-02T22:17:53.725Z,15.20
2019-05-02T22:20:44.620Z,15.10
2019-05-02T22:23:35.966Z,15.10
2019-05-02T22:26:27.430Z,15.10
2019-05-02T22:29:17.879Z,15.10
2019-05-02T22:32:08.343Z,15.10
2019-05-02T22:34:58.923Z,15.10
2019-05-02T22:37:52.007Z,15.10
2019-05-02T22:40:44.385Z,15.00
2019-05-02T22:43:35.623Z,15.00
2019-05-02T22:46:44.752Z,15.00
2019-05-02T22:49:36.081Z,15.00
2019-05-02T22:52:27.072Z,14.90
2019-05-02T22:55:18.188Z,14.90
2019-05-02T22:58:10.465Z,14.90
2019-05-02T23:01:01.957Z,14.90
2019-05-02T23:03:53.306Z,14.90
2019-05-02T23:06:44.622Z,14.90
2019-05-02T23:09:36.752Z,15.00
2019-05-02T23:12:27.369Z,15.00
2019-05-02T23:15:17.869Z,15.10
2019-05-02T23:18:08.234Z,15.10
2019-05-02T23:20:59.404Z,15.20
2019-05-02T23:23:52.273Z,15.20
2019-05-02T23:26:59.186Z,15.20
2019-05-02T23:29:51.920Z,15.30
2019-05-02T23:32:42.419Z,15.30
2019-05-02T23:35:34.311Z,15.30
2019-05-02T23:38:24.854Z,15.30
2019-05-02T23:41:15.053Z,15.30
2019-05-02T23:44:06.221Z,15.30
2019-05-02T23:46:56.540Z,15.30
2019-05-02T23:49:47.928Z,15.40
2019-05-02T23:52:40.048Z,15.40
2019-05-02T23:55:32.223Z,15.40
2019-05-02T23:58:23.531Z,15.40
